createdAt,value
2023-07-08T04:00:30.226Z,99.99
2023-07-08T04:05:30.119Z,99.99
2023-07-08T04:10:30.093Z,99.99
2023-07-08T04:15:37.302Z,99.99
2023-07-08T04:20:29.955Z,99.99
2023-07-08T04:25:29.902Z,99.99
2023-07-08T04:30:29.852Z,99.99
2023-07-08T04:35:29.829Z,92.76
2023-07-08T04:40:29.757Z,87.27
2023-07-08T04:45:29.674Z,89.06
2023-07-08T04:50:29.633Z,92.36
2023-07-08T04:55:29.604Z,96.25
2023-07-08T05:00:29.535Z,91.96
2023-07-08T05:05:29.489Z,94.76
2023-07-08T05:10:29.418Z,98.55
2023-07-08T05:15:29.390Z,99.55
2023-07-08T05:20:29.308Z,99.99
2023-07-08T05:25:29.261Z,99.99
2023-07-08T05:30:29.205Z,99.99
2023-07-08T05:35:29.182Z,98.15
2023-07-08T05:40:29.091Z,89.06
2023-07-08T05:45:29.039Z,78.08
2023-07-08T05:50:28.981Z,74.49
2023-07-08T05:55:28.953Z,72.99
2023-07-08T06:00:38.426Z,72.09
2023-07-08T06:05:29.832Z,71.79
2023-07-08T06:10:28.799Z,70.69
2023-07-08T06:15:28.743Z,70.59
2023-07-08T06:20:28.749Z,69.69
2023-07-08T06:25:28.599Z,77.68
2023-07-08T06:30:28.591Z,76.08
2023-07-08T06:35:28.551Z,81.98
2023-07-08T06:40:28.465Z,76.88
2023-07-08T06:45:28.442Z,73.28
2023-07-08T06:50:28.364Z,72.29
2023-07-08T06:55:28.334Z,71.89
2023-07-08T07:00:28.262Z,71.19
2023-07-08T07:05:28.208Z,71.79
2023-07-08T07:10:28.162Z,72.19
2023-07-08T07:15:28.220Z,73.49
2023-07-08T07:20:28.113Z,73.49
2023-07-08T07:25:28.001Z,73.39
2023-07-08T07:30:27.953Z,73.28
2023-07-08T07:35:27.935Z,73.28
2023-07-08T07:40:27.847Z,80.38
2023-07-08T07:45:27.850Z,84.87
2023-07-08T07:50:27.757Z,84.57
2023-07-08T07:55:27.779Z,84.17
2023-07-08T08:00:27.662Z,83.47
2023-07-08T08:05:27.601Z,84.27
2023-07-08T08:10:27.552Z,88.86
2023-07-08T08:15:27.533Z,88.76
2023-07-08T08:20:27.453Z,89.36
2023-07-08T08:25:27.375Z,89.86
2023-07-08T08:30:27.345Z,91.06
2023-07-08T08:35:27.317Z,90.26
2023-07-08T08:40:27.227Z,91.16
2023-07-08T08:45:27.183Z,90.96
2023-07-08T08:50:27.142Z,89.66
2023-07-08T08:55:27.104Z,88.86
2023-07-08T09:00:27.035Z,89.26
2023-07-08T09:05:26.977Z,89.66
2023-07-08T09:10:26.929Z,90.76
2023-07-08T09:15:26.898Z,90.96
2023-07-08T09:20:26.839Z,91.46
2023-07-08T09:25:26.770Z,91.26
2023-07-08T09:30:26.778Z,91.56
2023-07-08T09:35:26.709Z,91.86
2023-07-08T09:40:26.623Z,91.66
2023-07-08T09:45:26.567Z,91.06
2023-07-08T09:50:26.517Z,91.26
2023-07-08T09:55:26.494Z,92.16
2023-07-08T10:00:26.417Z,92.16
2023-07-08T10:05:26.366Z,92.26
2023-07-08T10:10:26.324Z,92.76
2023-07-08T10:15:26.299Z,93.16
2023-07-08T10:20:33.458Z,93.36
2023-07-08T10:25:26.166Z,93.76
2023-07-08T10:30:26.103Z,93.46
2023-07-08T10:35:26.076Z,94.26
2023-07-08T10:40:25.998Z,94.26
2023-07-08T10:45:25.946Z,94.65
2023-07-08T10:50:25.890Z,94.56
2023-07-08T10:55:25.869Z,94.76
2023-07-08T11:00:25.789Z,94.26
2023-07-08T11:05:25.746Z,93.96
2023-07-08T11:10:25.689Z,93.76
2023-07-08T11:15:25.762Z,93.66
2023-07-08T11:20:25.587Z,93.85
2023-07-08T11:25:25.539Z,94.15
2023-07-08T11:30:25.476Z,94.35
2023-07-08T11:35:25.452Z,94.35
2023-07-08T11:40:25.396Z,93.76
2023-07-08T11:45:25.329Z,94.56
2023-07-08T11:50:25.280Z,94.35
2023-07-08T11:55:25.257Z,94.85
2023-07-08T12:00:25.175Z,95.06
2023-07-08T12:05:25.132Z,95.55
2023-07-08T12:10:25.071Z,95.36
2023-07-08T12:15:25.043Z,95.65
2023-07-08T12:20:24.969Z,95.75
2023-07-08T12:25:24.929Z,95.75
2023-07-08T12:30:24.852Z,95.86
2023-07-08T12:35:24.839Z,95.86
2023-07-08T12:40:24.760Z,95.65
2023-07-08T12:45:24.720Z,95.45
2023-07-08T12:50:24.647Z,96.05
2023-07-08T12:55:24.628Z,96.15
2023-07-08T13:00:24.578Z,96.05
2023-07-08T13:05:24.503Z,95.95
2023-07-08T13:10:24.450Z,96.25
2023-07-08T13:15:24.430Z,96.15
2023-07-08T13:20:24.349Z,96.15
2023-07-08T13:25:24.295Z,96.65
2023-07-08T13:30:24.256Z,96.35
2023-07-08T13:35:24.221Z,96.35
2023-07-08T13:40:24.159Z,96.55
2023-07-08T13:45:24.083Z,96.75
2023-07-08T13:50:24.044Z,96.65
2023-07-08T13:55:24.015Z,96.55
2023-07-08T14:00:23.954Z,97.25
2023-07-08T14:05:23.891Z,97.25
2023-07-08T14:10:23.864Z,96.65
2023-07-08T14:15:23.830Z,96.45
2023-07-08T14:20:23.729Z,96.55
2023-07-08T14:25:23.701Z,96.35
2023-07-08T14:30:23.643Z,96.55
2023-07-08T14:35:23.604Z,98.35
2023-07-08T14:40:23.556Z,98.55
2023-07-08T14:45:23.492Z,98.55
2023-07-08T14:50:23.433Z,98.45
2023-07-08T14:55:23.404Z,97.35
2023-07-08T15:00:23.333Z,97.45
2023-07-08T15:05:25.315Z,97.45
2023-07-08T15:10:23.262Z,97.85
2023-07-08T15:15:23.205Z,99.05
2023-07-08T15:20:23.139Z,99.55
2023-07-08T15:25:23.088Z,99.75
2023-07-08T15:30:23.031Z,99.35
2023-07-08T15:35:23.009Z,99.65
2023-07-08T15:40:22.919Z,99.05
2023-07-08T15:45:22.894Z,99.05
2023-07-08T15:50:22.828Z,97.25
2023-07-08T15:55:22.812Z,95.95
2023-07-08T16:00:22.728Z,95.36
2023-07-08T16:05:22.664Z,95.25
2023-07-08T16:10:22.629Z,95.75
2023-07-08T16:15:22.587Z,96.35
2023-07-08T16:20:22.553Z,96.45
2023-07-08T16:25:29.531Z,97.35
2023-07-08T16:30:22.500Z,97.55
2023-07-08T16:35:22.407Z,98.25
2023-07-08T16:40:22.309Z,99.75
2023-07-08T16:45:22.295Z,99.99
2023-07-08T16:50:22.365Z,99.99
2023-07-08T16:55:22.275Z,99.99
2023-07-08T17:00:22.164Z,99.99
2023-07-08T17:05:22.067Z,99.99
2023-07-08T17:10:22.026Z,99.99
2023-07-08T17:15:22.002Z,99.99
2023-07-08T17:20:21.956Z,99.99
2023-07-08T17:25:21.846Z,99.99
2023-07-08T17:30:21.824Z,99.99
2023-07-08T17:35:23.534Z,99.99
2023-07-08T17:40:21.708Z,99.99
2023-07-08T17:45:21.654Z,99.99
2023-07-08T17:50:21.623Z,99.99
2023-07-08T17:55:21.580Z,99.99
2023-07-08T18:00:21.513Z,99.99
2023-07-08T18:05:21.448Z,99.99
2023-07-08T18:10:21.432Z,99.99
2023-07-08T18:15:21.382Z,99.99
2023-07-08T18:20:21.348Z,99.99
2023-07-08T18:25:21.274Z,99.99
2023-07-08T18:30:21.186Z,99.99
2023-07-08T18:35:21.175Z,99.99
2023-07-08T18:40:21.096Z,99.99
2023-07-08T18:45:21.080Z,99.99
2023-07-08T18:50:21.002Z,99.99
2023-07-08T18:55:20.963Z,99.99
2023-07-08T19:00:20.899Z,99.99
2023-07-08T19:05:20.848Z,99.99
2023-07-08T19:10:20.785Z,99.99
2023-07-08T19:15:20.739Z,99.99
2023-07-08T19:20:20.655Z,99.99
2023-07-08T19:25:20.632Z,99.99
2023-07-08T19:30:20.598Z,99.99
2023-07-08T19:35:20.526Z,99.99
2023-07-08T19:40:20.480Z,99.99
2023-07-08T19:45:20.401Z,99.99
2023-07-08T19:50:20.348Z,99.99
2023-07-08T19:55:20.348Z,99.99
2023-07-08T20:00:20.231Z,99.99
2023-07-08T20:05:20.206Z,99.99
2023-07-08T20:10:20.147Z,99.99
2023-07-08T20:15:20.134Z,99.99
2023-07-08T20:20:20.094Z,99.99
2023-07-08T20:25:19.998Z,99.99
2023-07-08T20:30:19.905Z,99.99
2023-07-08T20:35:19.886Z,99.99
2023-07-08T20:40:19.801Z,99.99
2023-07-08T20:45:19.778Z,99.99
2023-07-08T20:50:19.713Z,99.99
2023-07-08T20:55:19.696Z,99.99
2023-07-08T21:00:19.613Z,99.99
2023-07-08T21:05:19.540Z,99.99
2023-07-08T21:10:19.493Z,99.99
2023-07-08T21:15:19.435Z,99.99
2023-07-08T21:20:19.413Z,99.99
2023-07-08T21:25:19.322Z,99.99
2023-07-08T21:30:19.277Z,99.99
2023-07-08T21:35:19.238Z,99.99
2023-07-08T21:40:19.172Z,99.99
2023-07-08T21:45:19.104Z,99.99
2023-07-08T21:50:19.039Z,99.99
2023-07-08T21:55:19.018Z,99.99
2023-07-08T22:00:18.922Z,99.99
2023-07-08T22:05:18.892Z,99.99
2023-07-08T22:10:18.863Z,99.99
2023-07-08T22:15:18.837Z,99.99
2023-07-08T22:20:18.742Z,99.99
2023-07-08T22:25:25.713Z,99.99
2023-07-08T22:30:18.608Z,99.99
2023-07-08T22:35:18.596Z,99.99
2023-07-08T22:40:18.494Z,99.99
2023-07-08T22:45:18.455Z,99.99
2023-07-08T22:50:18.455Z,99.99
2023-07-08T22:55:18.417Z,99.99
2023-07-08T23:00:18.308Z,99.99
2023-07-08T23:05:18.243Z,99.99
2023-07-08T23:10:18.198Z,99.99
2023-07-08T23:15:18.145Z,99.99
2023-07-08T23:20:18.086Z,99.99
2023-07-08T23:25:18.032Z,99.99
